sensor_id;sensor_type;location;lat;lon;timestamp;pressure;altitude;pressure_sealevel;temperature;humidity
48800;BME280;34611;47.964;7.982;2022-09-09T00:06:45;96484.47;;;17.03;62.15
48800;BME280;34611;47.964;7.982;2022-09-09T00:13:52;96475.50;;;16.97;62.22
48800;BME280;34611;47.964;7.982;2022-09-09T00:20:55;96482.38;;;16.98;61.92
48800;BME280;34611;47.964;7.982;2022-09-09T00:27:58;96488.44;;;16.99;62.04
48800;BME280;34611;47.964;7.982;2022-09-09T00:35:00;96480.56;;;16.99;61.76
48800;BME280;34611;47.964;7.982;2022-09-09T00:42:11;96491.25;;;16.97;62.03
48800;BME280;34611;47.964;7.982;2022-09-09T00:56:37;96501.94;;;16.96;62.51
48800;BME280;34611;47.964;7.982;2022-09-09T01:03:49;96491.88;;;16.99;62.18
48800;BME280;34611;47.964;7.982;2022-09-09T01:10:53;96486.28;;;17.03;62.18
48800;BME280;34611;47.964;7.982;2022-09-09T01:32:40;96472.59;;;16.92;62.86
48800;BME280;34611;47.964;7.982;2022-09-09T01:39:42;96465.00;;;16.97;62.56
48800;BME280;34611;47.964;7.982;2022-09-09T01:46:46;96487.63;;;16.98;62.59
48800;BME280;34611;47.964;7.982;2022-09-09T01:53:51;96488.81;;;16.96;63.13
48800;BME280;34611;47.964;7.982;2022-09-09T02:08:09;96499.06;;;17.06;63.39
48800;BME280;34611;47.964;7.982;2022-09-09T02:15:27;96507.00;;;16.97;64.82
48800;BME280;34611;47.964;7.982;2022-09-09T02:22:29;96492.53;;;17.02;65.67
48800;BME280;34611;47.964;7.982;2022-09-09T02:29:33;96495.78;;;17.04;65.96
48800;BME280;34611;47.964;7.982;2022-09-09T02:36:34;96489.72;;;17.03;65.83
48800;BME280;34611;47.964;7.982;2022-09-09T02:43:35;96495.78;;;17.04;65.72
48800;BME280;34611;47.964;7.982;2022-09-09T02:50:54;96492.53;;;17.02;66.74
48800;BME280;34611;47.964;7.982;2022-09-09T02:58:00;96495.63;;;17.05;66.16
48800;BME280;34611;47.964;7.982;2022-09-09T03:05:05;96497.06;;;17.08;66.04
48800;BME280;34611;47.964;7.982;2022-09-09T03:12:06;96493.47;;;17.09;65.89
48800;BME280;34611;47.964;7.982;2022-09-09T03:19:08;96486.56;;;17.08;65.91
48800;BME280;34611;47.964;7.982;2022-09-09T03:26:08;96490.53;;;17.04;66.19
48800;BME280;34611;47.964;7.982;2022-09-09T03:33:14;96491.81;;;17.08;66.05
48800;BME280;34611;47.964;7.982;2022-09-09T03:40:17;96484.13;;;17.06;66.26
48800;BME280;34611;47.964;7.982;2022-09-09T03:47:20;96484.94;;;17.07;66.55
48800;BME280;34611;47.964;7.982;2022-09-09T03:54:23;96491.28;;;17.12;66.17
48800;BME280;34611;47.964;7.982;2022-09-09T04:01:23;96488.00;;;17.10;66.24
48800;BME280;34611;47.964;7.982;2022-09-09T04:08:24;96478.50;;;17.09;66.73
48800;BME280;34611;47.964;7.982;2022-09-09T04:15:28;96474.44;;;17.07;67.23
48800;BME280;34611;47.964;7.982;2022-09-09T04:22:29;96484.94;;;17.07;67.07
48800;BME280;34611;47.964;7.982;2022-09-09T04:29:29;96491.81;;;17.08;66.99
48800;BME280;34611;47.964;7.982;2022-09-09T04:36:29;96493.25;;;17.10;66.93
48800;BME280;34611;47.964;7.982;2022-09-09T04:43:34;96501.78;;;17.12;66.66
48800;BME280;34611;47.964;7.982;2022-09-09T04:50:36;96493.91;;;17.12;66.47
48800;BME280;34611;47.964;7.982;2022-09-09T04:57:36;96502.06;;;17.17;66.42
48800;BME280;34611;47.964;7.982;2022-09-09T05:04:37;96485.03;;;17.13;66.33
48800;BME280;34611;47.964;7.982;2022-09-09T05:11:37;96491.91;;;17.14;66.64
48800;BME280;34611;47.964;7.982;2022-09-09T05:18:50;96501.59;;;17.14;67.28
48800;BME280;34611;47.964;7.982;2022-09-09T05:25:55;96507.34;;;17.47;65.83
48800;BME280;34611;47.964;7.982;2022-09-09T05:32:56;96504.66;;;17.55;65.38
48800;BME280;34611;47.964;7.982;2022-09-09T05:39:57;96484.34;;;17.64;65.17
48800;BME280;34611;47.964;7.982;2022-09-09T05:46:58;96492.50;;;17.69;65.29
48800;BME280;34611;47.964;7.982;2022-09-09T05:53:58;96508.44;;;17.68;65.15
48800;BME280;34611;47.964;7.982;2022-09-09T06:01:22;96508.72;;;17.73;65.08
48800;BME280;34611;47.964;7.982;2022-09-09T06:08:21;96506.53;;;17.76;65.08
48800;BME280;34611;47.964;7.982;2022-09-09T06:15:21;96515.88;;;17.79;64.80
48800;BME280;34611;47.964;7.982;2022-09-09T06:22:22;96523.59;;;17.80;64.87
48800;BME280;34611;47.964;7.982;2022-09-09T06:29:22;96520.63;;;17.84;64.82
48800;BME280;34611;47.964;7.982;2022-09-09T06:36:34;96519.63;;;17.85;64.63
48800;BME280;34611;47.964;7.982;2022-09-09T06:43:34;96510.53;;;17.87;64.84
48800;BME280;34611;47.964;7.982;2022-09-09T06:50:35;96528.94;;;17.87;64.80
48800;BME280;34611;47.964;7.982;2022-09-09T06:57:36;96531.22;;;17.90;64.59
48800;BME280;34611;47.964;7.982;2022-09-09T07:04:36;96538.94;;;17.92;64.56
48800;BME280;34611;47.964;7.982;2022-09-09T07:11:38;96544.84;;;17.94;64.62
48800;BME280;34611;47.964;7.982;2022-09-09T07:18:39;96547.28;;;17.95;64.50
48800;BME280;34611;47.964;7.982;2022-09-09T07:25:44;96559.44;;;17.96;64.53
48800;BME280;34611;47.964;7.982;2022-09-09T07:32:46;96547.09;;;17.97;64.49
48800;BME280;34611;47.964;7.982;2022-09-09T07:39:46;96554.97;;;17.97;64.55
48800;BME280;34611;47.964;7.982;2022-09-09T07:46:47;96576.03;;;17.97;64.49
48800;BME280;34611;47.964;7.982;2022-09-09T07:53:53;96560.69;;;18.00;64.39
48800;BME280;34611;47.964;7.982;2022-09-09T08:00:53;96570.22;;;18.02;64.43
48800;BME280;34611;47.964;7.982;2022-09-09T08:07:55;96578.94;;;18.02;64.48
48800;BME280;34611;47.964;7.982;2022-09-09T08:14:55;96585.00;;;18.03;64.45
48800;BME280;34611;47.964;7.982;2022-09-09T08:21:57;96597.16;;;18.04;64.45
48800;BME280;34611;47.964;7.982;2022-09-09T08:28:59;96604.06;;;18.05;64.43
48800;BME280;34611;47.964;7.982;2022-09-09T08:36:00;96590.91;;;18.05;64.44
48800;BME280;34611;47.964;7.982;2022-09-09T08:43:01;96587.09;;;18.07;64.44
48800;BME280;34611;47.964;7.982;2022-09-09T08:50:05;96580.81;;;18.08;64.45
48800;BME280;34611;47.964;7.982;2022-09-09T08:57:11;96587.72;;;18.09;64.33
48800;BME280;34611;47.964;7.982;2022-09-09T09:04:22;96582.63;;;18.08;64.56
48800;BME280;34611;47.964;7.982;2022-09-09T09:11:33;96579.66;;;18.11;64.48
48800;BME280;34611;47.964;7.982;2022-09-09T09:18:34;96580.63;;;18.10;64.32
48800;BME280;34611;47.964;7.982;2022-09-09T09:25:36;96581.44;;;18.10;64.28
48800;BME280;34611;47.964;7.982;2022-09-09T09:32:38;96575.84;;;18.13;64.34
48800;BME280;34611;47.964;7.982;2022-09-09T09:39:41;96567.13;;;18.13;64.49
48800;BME280;34611;47.964;7.982;2022-09-09T09:46:41;96574.81;;;18.14;64.44
48800;BME280;34611;47.964;7.982;2022-09-09T09:53:46;96566.94;;;18.14;64.57
48800;BME280;34611;47.964;7.982;2022-09-09T10:00:49;96561.66;;;18.14;64.64
48800;BME280;34611;47.964;7.982;2022-09-09T10:15:15;96561.50;;;18.16;64.53
48800;BME280;34611;47.964;7.982;2022-09-09T10:22:26;96560.50;;;18.17;64.47
48800;BME280;34611;47.964;7.982;2022-09-09T10:29:40;96555.03;;;18.18;64.26
48800;BME280;34611;47.964;7.982;2022-09-09T10:36:46;96542.91;;;18.17;64.44
48800;BME280;34611;47.964;7.982;2022-09-09T10:50:59;96561.94;;;18.19;64.56
48800;BME280;34611;47.964;7.982;2022-09-09T10:58:03;96563.78;;;18.19;64.25
48800;BME280;34611;47.964;7.982;2022-09-09T11:12:11;96567.84;;;18.22;64.40
48800;BME280;34611;47.964;7.982;2022-09-09T11:19:16;96565.22;;;18.22;64.46
48800;BME280;34611;47.964;7.982;2022-09-09T11:26:27;96569.66;;;18.21;64.56
48800;BME280;34611;47.964;7.982;2022-09-09T11:34:31;96573.09;;;18.22;64.51
48800;BME280;34611;47.964;7.982;2022-09-09T11:41:00;96567.84;;;18.22;64.61
48800;BME280;34611;47.964;7.982;2022-09-09T11:48:03;96582.44;;;18.24;64.47
48800;BME280;34611;47.964;7.982;2022-09-09T11:55:11;96577.19;;;18.24;64.51
48800;BME280;34611;47.964;7.982;2022-09-09T12:02:13;96577.19;;;18.24;64.43
48800;BME280;34611;47.964;7.982;2022-09-09T12:16:30;96576.19;;;18.25;64.54
48800;BME280;34611;47.964;7.982;2022-09-09T12:30:35;96563.84;;;18.26;64.40
48800;BME280;34611;47.964;7.982;2022-09-09T12:37:40;96568.09;;;18.27;64.40
48800;BME280;34611;47.964;7.982;2022-09-09T12:44:50;96569.75;;;18.28;64.58
48800;BME280;34611;47.964;7.982;2022-09-09T12:51:50;96546.06;;;18.28;64.50
48800;BME280;34611;47.964;7.982;2022-09-09T12:58:51;96536.53;;;18.27;64.39
48800;BME280;34611;47.964;7.982;2022-09-09T13:05:52;96547.69;;;18.29;64.30
48800;BME280;34611;47.964;7.982;2022-09-09T13:12:53;96552.94;;;18.29;64.22
48800;BME280;34611;47.964;7.982;2022-09-09T13:19:54;96540.63;;;18.29;64.40
48800;BME280;34611;47.964;7.982;2022-09-09T13:27:39;96546.69;;;18.30;64.40
48800;BME280;34611;47.964;7.982;2022-09-09T13:34:27;96574.63;;;18.31;64.44
48800;BME280;34611;47.964;7.982;2022-09-09T13:41:42;96598.31;;;18.31;64.46
48800;BME280;34611;47.964;7.982;2022-09-09T13:48:53;96579.88;;;18.31;64.51
48800;BME280;34611;47.964;7.982;2022-09-09T13:55:53;96576.44;;;18.30;64.60
48800;BME280;34611;47.964;7.982;2022-09-09T14:02:53;96564.94;;;18.31;64.52
48800;BME280;34611;47.964;7.982;2022-09-09T14:09:55;96561.47;;;18.31;64.64
48800;BME280;34611;47.964;7.982;2022-09-09T14:16:55;96547.31;;;18.32;64.63
48800;BME280;34611;47.964;7.982;2022-09-09T14:23:55;96547.16;;;18.33;64.41
48800;BME280;34611;47.964;7.982;2022-09-09T14:31:01;96544.69;;;18.32;64.44
48800;BME280;34611;47.964;7.982;2022-09-09T14:38:02;96554.19;;;18.33;64.53
48800;BME280;34611;47.964;7.982;2022-09-09T14:45:03;96550.59;;;18.34;64.57
48800;BME280;34611;47.964;7.982;2022-09-09T14:52:04;96545.31;;;18.34;64.58
48800;BME280;34611;47.964;7.982;2022-09-09T14:59:04;96540.06;;;18.34;64.52
48800;BME280;34611;47.964;7.982;2022-09-09T15:06:08;96536.41;;;18.35;64.53
48800;BME280;34611;47.964;7.982;2022-09-09T15:13:09;96536.25;;;18.36;64.59
48800;BME280;34611;47.964;7.982;2022-09-09T15:20:09;96532.81;;;18.36;64.38
48800;BME280;34611;47.964;7.982;2022-09-09T15:27:09;96538.06;;;18.36;64.51
48800;BME280;34611;47.964;7.982;2022-09-09T15:34:09;96543.31;;;18.36;64.71
48800;BME280;34611;47.964;7.982;2022-09-09T15:41:10;96539.69;;;18.37;64.41
48800;BME280;34611;47.964;7.982;2022-09-09T15:48:11;96544.94;;;18.37;64.35
48800;BME280;34611;47.964;7.982;2022-09-09T15:55:11;96546.59;;;18.38;64.52
48800;BME280;34611;47.964;7.982;2022-09-09T16:02:12;96545.78;;;18.37;64.47
48800;BME280;34611;47.964;7.982;2022-09-09T16:09:12;96551.84;;;18.38;64.46
48800;BME280;34611;47.964;7.982;2022-09-09T16:16:13;96541.31;;;18.38;64.12
48800;BME280;34611;47.964;7.982;2022-09-09T16:23:14;96544.75;;;18.38;64.41
48800;BME280;34611;47.964;7.982;2022-09-09T16:30:14;96578.97;;;18.38;64.50
48800;BME280;34611;47.964;7.982;2022-09-09T16:37:15;96609.53;;;18.39;64.41
48800;BME280;34611;47.964;7.982;2022-09-09T16:44:15;96625.34;;;18.39;64.37
48800;BME280;34611;47.964;7.982;2022-09-09T16:51:22;96633.22;;;18.39;64.60
48800;BME280;34611;47.964;7.982;2022-09-09T16:58:24;96633.22;;;18.39;64.60
48800;BME280;34611;47.964;7.982;2022-09-09T17:05:24;96626.16;;;18.40;64.48
48800;BME280;34611;47.964;7.982;2022-09-09T17:12:25;96626.34;;;18.38;64.63
48800;BME280;34611;47.964;7.982;2022-09-09T17:19:25;96626.16;;;18.40;64.55
48800;BME280;34611;47.964;7.982;2022-09-09T17:26:27;96636.69;;;18.40;64.50
48800;BME280;34611;47.964;7.982;2022-09-09T17:33:28;96640.13;;;18.40;64.41
48800;BME280;34611;47.964;7.982;2022-09-09T17:40:30;96641.75;;;18.41;64.41
48800;BME280;34611;47.964;7.982;2022-09-09T17:47:31;96642.78;;;18.40;64.47
48800;BME280;34611;47.964;7.982;2022-09-09T17:54:31;96639.97;;;18.42;64.36
48800;BME280;34611;47.964;7.982;2022-09-09T18:01:33;96654.09;;;18.41;64.38
48800;BME280;34611;47.964;7.982;2022-09-09T18:08:34;96640.94;;;18.41;64.52
48800;BME280;34611;47.964;7.982;2022-09-09T18:15:36;96639.34;;;18.40;64.52
48800;BME280;34611;47.964;7.982;2022-09-09T18:22:36;96646.03;;;18.43;64.34
48800;BME280;34611;47.964;7.982;2022-09-09T18:29:36;96659.19;;;18.43;64.52
48800;BME280;34611;47.964;7.982;2022-09-09T18:36:40;96672.34;;;18.43;64.40
48800;BME280;34611;47.964;7.982;2022-09-09T18:43:42;96666.28;;;18.42;64.46
48800;BME280;34611;47.964;7.982;2022-09-09T18:50:43;96674.19;;;18.42;64.36
48800;BME280;34611;47.964;7.982;2022-09-09T18:57:43;96683.88;;;18.41;64.43
48800;BME280;34611;47.964;7.982;2022-09-09T19:04:43;96690.78;;;18.43;64.49
48800;BME280;34611;47.964;7.982;2022-09-09T19:11:44;96703.13;;;18.42;64.31
48800;BME280;34611;47.964;7.982;2022-09-09T19:18:45;96715.28;;;18.43;64.50
48800;BME280;34611;47.964;7.982;2022-09-09T19:25:47;96713.44;;;18.44;64.45
48800;BME280;34611;47.964;7.982;2022-09-09T19:32:47;96706.56;;;18.43;64.57
48800;BME280;34611;47.964;7.982;2022-09-09T19:39:47;96715.28;;;18.43;64.58
48800;BME280;34611;47.964;7.982;2022-09-09T19:46:49;96708.19;;;18.44;64.60
48800;BME280;34611;47.964;7.982;2022-09-09T19:53:53;96704.56;;;18.45;64.29
48800;BME280;34611;47.964;7.982;2022-09-09T20:00:55;96693.03;;;18.46;64.40
48800;BME280;34611;47.964;7.982;2022-09-09T20:07:56;96703.56;;;18.46;64.42
48800;BME280;34611;47.964;7.982;2022-09-09T20:14:57;96700.13;;;18.45;64.42
48800;BME280;34611;47.964;7.982;2022-09-09T20:21:58;96699.31;;;18.45;64.46
48800;BME280;34611;47.964;7.982;2022-09-09T20:28:58;96700.94;;;18.46;64.36
48800;BME280;34611;47.964;7.982;2022-09-09T20:35:58;96701.94;;;18.45;64.45
48800;BME280;34611;47.964;7.982;2022-09-09T20:43:04;96706.19;;;18.46;64.42
48800;BME280;34611;47.964;7.982;2022-09-09T20:50:04;96708.81;;;18.46;64.45
48800;BME280;34611;47.964;7.982;2022-09-09T20:57:05;96701.78;;;18.46;64.45
48800;BME280;34611;47.964;7.982;2022-09-09T21:04:06;96701.78;;;18.46;64.16
48800;BME280;34611;47.964;7.982;2022-09-09T21:11:07;96711.47;;;18.46;64.62
48800;BME280;34611;47.964;7.982;2022-09-09T21:18:07;96714.94;;;18.46;64.18
48800;BME280;34611;47.964;7.982;2022-09-09T21:25:07;96714.94;;;18.46;64.46
48800;BME280;34611;47.964;7.982;2022-09-09T21:32:08;96713.91;;;18.47;64.29
48800;BME280;34611;47.964;7.982;2022-09-09T21:39:09;96711.47;;;18.46;64.29
48800;BME280;34611;47.964;7.982;2022-09-09T21:46:14;96722.81;;;18.46;64.40
48800;BME280;34611;47.964;7.982;2022-09-09T21:53:15;96721.97;;;18.46;64.45
48800;BME280;34611;47.964;7.982;2022-09-09T22:00:19;96728.09;;;18.46;64.65
48800;BME280;34611;47.964;7.982;2022-09-09T22:07:19;96722.81;;;18.46;64.50
48800;BME280;34611;47.964;7.982;2022-09-09T22:14:19;96719.19;;;18.47;64.41
48800;BME280;34611;47.964;7.982;2022-09-09T22:21:20;96714.72;;;18.48;64.34
48800;BME280;34611;47.964;7.982;2022-09-09T22:28:21;96713.09;;;18.47;64.39
48800;BME280;34611;47.964;7.982;2022-09-09T22:35:21;96713.09;;;18.47;64.47
48800;BME280;34611;47.964;7.982;2022-09-09T22:42:21;96713.09;;;18.47;64.56
48800;BME280;34611;47.964;7.982;2022-09-09T22:49:22;96711.28;;;18.47;64.02
48800;BME280;34611;47.964;7.982;2022-09-09T22:56:22;96715.75;;;18.47;64.44
48800;BME280;34611;47.964;7.982;2022-09-09T23:03:26;96697.31;;;18.47;64.48
48800;BME280;34611;47.964;7.982;2022-09-09T23:10:27;96707.66;;;18.48;64.19
48800;BME280;34611;47.964;7.982;2022-09-09T23:17:31;96702.56;;;18.47;64.48
48800;BME280;34611;47.964;7.982;2022-09-09T23:24:33;96702.56;;;18.47;64.36
48800;BME280;34611;47.964;7.982;2022-09-09T23:31:34;96704.19;;;18.48;64.38
48800;BME280;34611;47.964;7.982;2022-09-09T23:38:37;96707.84;;;18.47;64.47
48800;BME280;34611;47.964;7.982;2022-09-09T23:45:38;96708.66;;;18.47;64.28
48800;BME280;34611;47.964;7.982;2022-09-09T23:52:38;96701.78;;;18.46;64.54
48800;BME280;34611;47.964;7.982;2022-09-09T23:59:42;96693.66;;;18.48;64.41
